Terminal Aerodrome Forecast
Issued by NWS

Home | Current Version | Previous Version | Text Only | Print | Product List | Glossary On
Versions: 1 2 3 4 5 6 7 8 9 10 11 12 13
000
FTUS42 TJSJ 050528
TAFJBQ
TAF
TJBQ 050528Z 0506/0606 10011KT P6SM FEW025
     FM051400 08018KT P6SM FEW025 SCT050
     FM052300 09008KT P6SM SCT025
      AMD NOT SKED TIL 051100=

USA.gov is the U.S. government's official web portal to all federal, state and local government web resources and services.